Time;durP1;ratioP1;P1;durP2;ratioP2;P2;SDS_P1;SDS_P2;PMS_P1;PMS_P2;Temp;Humidity;BMP_temperature;BMP_pressure;BME280_temperature;BME280_humidity;BME280_pressure;Samples;Min_cycle;Max_cycle;Signal;HPM_P1;HPM_P2
2022/11/20 00:01:23;;;;;;;34.53;21.10;;;-3.90;99.90;;;;;;4844481;29;20333;-62
2022/11/20 00:03:55;;;;;;;39.90;22.43;;;-4.00;99.90;;;;;;4858624;29;20244;-63
2022/11/20 00:06:23;;;;;;;39.13;20.83;;;-4.10;99.90;;;;;;4843785;29;20214;-63
2022/11/20 00:08:50;;;;;;;34.17;19.23;;;-4.10;99.90;;;;;;4843891;29;20695;-63
2022/11/20 00:11:19;;;;;;;30.03;18.53;;;-4.20;99.90;;;;;;4844672;29;20800;-62
2022/11/20 00:13:48;;;;;;;29.47;18.33;;;-4.20;99.90;;;;;;4845891;29;20213;-63
2022/11/20 00:16:18;;;;;;;24.70;15.87;;;-4.30;99.90;;;;;;4846065;29;20595;-63
2022/11/20 00:18:45;;;;;;;27.80;17.43;;;-4.30;99.90;;;;;;4843388;29;20309;-63
2022/11/20 00:21:18;;;;;;;24.17;16.27;;;-4.30;99.90;;;;;;4844746;29;20211;-62
2022/11/20 00:23:45;;;;;;;30.60;18.93;;;-4.30;99.90;;;;;;4821019;29;20301;-61
2022/11/20 00:26:14;;;;;;;31.73;17.90;;;-4.20;99.90;;;;;;4845131;29;20451;-61
2022/11/20 00:28:44;;;;;;;38.80;20.23;;;-4.20;99.90;;;;;;4844368;29;20199;-63
2022/11/20 00:31:13;;;;;;;31.83;19.60;;;-4.30;99.90;;;;;;4814705;29;20239;-62
2022/11/20 00:33:42;;;;;;;33.27;19.77;;;-4.30;99.90;;;;;;4847256;29;20222;-62
2022/11/20 00:36:11;;;;;;;33.67;20.50;;;-4.30;99.90;;;;;;4847438;29;20256;-62
2022/11/20 00:38:38;;;;;;;39.10;21.57;;;-4.40;99.90;;;;;;4847970;29;20290;-62
2022/11/20 00:41:08;;;;;;;36.83;20.80;;;-4.30;99.90;;;;;;4847723;29;20210;-62
2022/11/20 00:43:36;;;;;;;34.10;20.30;;;-4.30;99.90;;;;;;4847978;29;20221;-62
2022/11/20 00:46:25;;;;;;;31.30;19.27;;;-4.40;99.90;;;;;;4846921;29;20205;-62
2022/11/20 00:48:52;;;;;;;32.83;18.97;;;-4.40;99.90;;;;;;4832444;29;20609;-62
2022/11/20 00:51:21;;;;;;;37.47;20.50;;;-4.40;99.90;;;;;;4848075;29;20236;-61
2022/11/20 00:53:49;;;;;;;37.60;20.73;;;-4.40;99.90;;;;;;4830504;29;20198;-62
2022/11/20 00:56:18;;;;;;;35.43;20.17;;;-4.40;99.90;;;;;;4847842;29;20236;-65
2022/11/20 00:58:47;;;;;;;33.97;19.93;;;-4.40;99.90;;;;;;4847236;29;20282;-63
2022/11/20 01:01:15;;;;;;;38.83;21.43;;;-4.40;99.90;;;;;;4846518;29;20718;-61
2022/11/20 01:03:44;;;;;;;31.67;19.27;;;-4.40;99.90;;;;;;4847913;29;20267;-62
2022/11/20 01:06:16;;;;;;;32.80;19.77;;;-4.40;99.90;;;;;;4848301;29;20258;-62
2022/11/20 01:08:43;;;;;;;31.57;19.43;;;-4.40;99.90;;;;;;4844159;29;20207;-62
2022/11/20 01:11:13;;;;;;;28.93;18.73;;;-4.50;99.90;;;;;;4847713;29;20240;-61
2022/11/20 01:13:41;;;;;;;29.20;18.83;;;-4.50;99.90;;;;;;4829180;29;20718;-62
2022/11/20 01:16:33;;;;;;;32.33;19.57;;;-4.60;99.90;;;;;;4846422;29;20667;-61
2022/11/20 01:19:03;;;;;;;33.47;20.03;;;-4.60;99.90;;;;;;4829008;29;20210;-63
2022/11/20 01:21:33;;;;;;;35.87;21.33;;;-4.50;99.90;;;;;;4830900;29;20222;-62
2022/11/20 01:24:01;;;;;;;36.00;19.67;;;-4.40;99.90;;;;;;4848083;29;20207;-62
2022/11/20 01:26:31;;;;;;;32.83;20.70;;;-4.30;99.20;;;;;;4844141;29;20242;-61
2022/11/20 01:29:00;;;;;;;30.77;18.87;;;-4.30;80.60;;;;;;4844776;29;20204;-62
2022/11/20 01:31:36;;;;;;;34.60;20.50;;;-4.40;65.80;;;;;;4845400;29;20293;-63
2022/11/20 01:34:09;;;;;;;31.37;19.90;;;-4.50;65.50;;;;;;4846955;29;20222;-62
2022/11/20 01:36:37;;;;;;;34.57;20.20;;;-4.50;96.40;;;;;;4848688;29;20229;-61
2022/11/20 01:39:06;;;;;;;32.43;20.07;;;-4.50;99.90;;;;;;4831263;29;20235;-63
2022/11/20 01:44:22;;;;;;;33.03;20.37;;;-4.40;99.90;;;;;;4846639;29;20205;-62
2022/11/20 01:47:03;;;;;;;35.80;20.60;;;-4.30;99.90;;;;;;4846977;29;20231;-61
2022/11/20 01:49:38;;;;;;;30.13;20.30;;;-4.10;99.90;;;;;;4847453;29;20274;-62
2022/11/20 01:52:30;;;;;;;32.40;20.50;;;-3.90;91.80;;;;;;4832042;29;20384;-62
2022/11/20 01:55:12;;;;;;;37.87;23.33;;;-3.80;16.20;;;;;;4846877;29;20221;-64
2022/11/20 01:57:40;;;;;;;31.93;19.93;;;-3.60;9.80;;;;;;4846408;29;20214;-61
2022/11/20 02:00:21;;;;;;;31.63;20.13;;;-3.40;1.00;;;;;;4847284;29;20756;-61
2022/11/20 02:02:53;;;;;;;30.73;20.10;;;-3.30;1.00;;;;;;4816024;29;20634;-62
2022/11/20 02:05:46;;;;;;;28.47;19.47;;;-3.20;1.00;;;;;;4846138;29;20737;-62
2022/11/20 02:08:13;;;;;;;31.67;19.63;;;-3.00;1.00;;;;;;4846228;29;20213;-63
2022/11/20 02:10:40;;;;;;;30.23;19.33;;;-3.10;1.00;;;;;;4848151;29;20241;-62
2022/11/20 02:15:54;;;;;;;30.93;20.10;;;-3.20;1.00;;;;;;4847372;29;20213;-63
2022/11/20 02:18:22;;;;;;;35.17;20.20;;;-3.20;1.00;;;;;;4845857;29;20567;-61
2022/11/20 02:21:00;;;;;;;34.00;21.17;;;-3.30;1.00;;;;;;4847766;29;20221;-61
2022/11/20 02:23:36;;;;;;;33.07;21.03;;;-3.30;1.00;;;;;;4845196;29;20353;-62
2022/11/20 02:26:06;;;;;;;33.50;20.27;;;-3.20;1.00;;;;;;4815220;29;20262;-62
2022/11/20 02:28:33;;;;;;;28.90;18.33;;;-3.20;1.00;;;;;;4845791;29;20202;-62
2022/11/20 02:31:01;;;;;;;25.17;18.10;;;-3.10;1.00;;;;;;4846898;29;20294;-62
2022/11/20 02:33:28;;;;;;;27.40;17.57;;;-3.20;1.00;;;;;;4846042;29;20710;-61
2022/11/20 02:35:55;;;;;;;24.93;16.90;;;-3.10;1.00;;;;;;4845954;29;20205;-62
2022/11/20 02:38:21;;;;;;;23.43;16.10;;;-3.10;1.00;;;;;;4829694;29;20206;-63
2022/11/20 02:40:48;;;;;;;24.03;16.27;;;-2.90;1.00;;;;;;4847228;29;20301;-61
2022/11/20 02:43:21;;;;;;;22.97;15.70;;;-2.80;1.00;;;;;;4845500;29;20190;-63
2022/11/20 02:45:49;;;;;;;24.47;15.73;;;-2.90;1.00;;;;;;4844648;29;20295;-63
2022/11/20 02:48:16;;;;;;;22.60;14.70;;;-2.90;1.00;;;;;;4830956;29;20203;-62
2022/11/20 02:50:43;;;;;;;23.50;16.40;;;-2.90;1.00;;;;;;4829461;29;20213;-62
2022/11/20 02:53:10;;;;;;;25.23;15.73;;;-2.80;1.00;;;;;;4845718;29;20295;-61
2022/11/20 02:55:37;;;;;;;22.03;16.00;;;-2.70;1.00;;;;;;4844511;29;20206;-63
2022/11/20 02:58:04;;;;;;;25.53;16.67;;;-2.70;1.00;;;;;;4846171;29;20667;-62
2022/11/20 03:00:31;;;;;;;24.93;16.33;;;-2.70;1.00;;;;;;4843907;29;20211;-62
2022/11/20 03:02:58;;;;;;;26.13;15.23;;;-2.50;1.00;;;;;;4845909;29;20221;-61
2022/11/20 03:05:25;;;;;;;22.43;15.10;;;-2.50;1.00;;;;;;4847286;29;20768;-61
2022/11/20 03:07:52;;;;;;;21.60;16.13;;;-2.40;1.00;;;;;;4845411;29;20226;-62
2022/11/20 03:10:19;;;;;;;22.07;14.50;;;-2.40;1.00;;;;;;4854338;29;20240;-61
2022/11/20 03:12:46;;;;;;;23.30;15.23;;;-2.40;1.00;;;;;;4844883;29;20660;-62
2022/11/20 03:15:13;;;;;;;23.27;15.43;;;-2.40;1.00;;;;;;4845669;29;20201;-63
2022/11/20 03:17:40;;;;;;;21.40;15.07;;;-2.40;1.00;;;;;;4844466;29;20213;-61
2022/11/20 03:20:08;;;;;;;20.87;13.97;;;-2.40;1.00;;;;;;4846460;29;20198;-61
2022/11/20 03:22:35;;;;;;;22.23;16.13;;;-2.40;1.00;;;;;;4845129;29;20206;-61
2022/11/20 03:25:03;;;;;;;19.63;15.60;;;-2.40;1.00;;;;;;4844420;29;20213;-61
2022/11/20 03:27:34;;;;;;;22.73;14.93;;;-2.40;1.00;;;;;;4846027;29;20302;-62
2022/11/20 03:30:01;;;;;;;23.80;16.40;;;-2.30;1.00;;;;;;4845838;29;20314;-61
2022/11/20 03:32:28;;;;;;;22.33;14.97;;;-2.30;1.00;;;;;;4859330;29;20799;-60
2022/11/20 03:34:55;;;;;;;24.03;15.40;;;-2.30;1.00;;;;;;4845497;29;20298;-59
2022/11/20 03:37:22;;;;;;;22.07;15.37;;;-2.30;1.00;;;;;;4844991;29;20630;-59
2022/11/20 03:39:49;;;;;;;22.37;14.67;;;-2.20;1.00;;;;;;4846258;29;20288;-60
2022/11/20 03:45:02;;;;;;;22.43;15.47;;;-2.20;1.00;;;;;;4845316;29;20293;-61
2022/11/20 03:47:29;;;;;;;24.10;15.80;;;-2.10;1.00;;;;;;4845066;29;20225;-60
2022/11/20 03:49:56;;;;;;;23.27;15.77;;;-2.10;1.00;;;;;;4845362;29;20211;-61
2022/11/20 03:52:23;;;;;;;22.50;15.67;;;-2.10;1.00;;;;;;4845608;29;20254;-59
2022/11/20 03:54:50;;;;;;;22.90;15.67;;;-2.00;1.00;;;;;;4845963;29;20233;-58
2022/11/20 03:57:17;;;;;;;22.50;15.30;;;-1.90;1.00;;;;;;4844601;29;20198;-59
2022/11/20 03:59:43;;;;;;;22.87;15.60;;;-1.90;1.00;;;;;;4844342;29;20214;-61
2022/11/20 04:02:10;;;;;;;21.67;15.13;;;-1.90;1.00;;;;;;4845671;29;20301;-60
2022/11/20 04:04:37;;;;;;;20.80;15.10;;;-1.90;1.00;;;;;;4844908;29;20746;-60
2022/11/20 04:07:04;;;;;;;24.13;15.57;;;-1.90;1.00;;;;;;4847645;29;20198;-60
2022/11/20 04:09:31;;;;;;;22.30;15.13;;;-1.90;1.00;;;;;;4849942;29;20591;-59
2022/11/20 04:11:58;;;;;;;21.50;15.87;;;-1.90;1.00;;;;;;4848018;29;20284;-60
2022/11/20 04:14:25;;;;;;;21.70;14.87;;;-1.70;1.00;;;;;;4847091;29;20624;-60
2022/11/20 04:16:52;;;;;;;21.73;15.70;;;-1.80;1.00;;;;;;4848344;29;20614;-59
2022/11/20 04:19:19;;;;;;;26.37;16.43;;;-1.90;1.00;;;;;;4847953;29;20289;-60
2022/11/20 04:21:46;;;;;;;30.20;16.53;;;-1.80;1.00;;;;;;4846972;29;20241;-59
2022/11/20 04:24:13;;;;;;;25.00;16.23;;;-1.90;1.00;;;;;;4848077;29;20285;-60
2022/11/20 04:26:40;;;;;;;24.13;15.50;;;-1.80;1.00;;;;;;4848675;29;20228;-60
2022/11/20 04:29:11;;;;;;;21.83;15.63;;;-1.70;1.00;;;;;;4833886;29;20213;-61
2022/11/20 04:31:38;;;;;;;24.93;15.87;;;-1.80;1.00;;;;;;4846966;29;20210;-61
2022/11/20 04:34:06;;;;;;;25.20;15.23;;;-1.70;1.00;;;;;;4847858;29;20248;-60
2022/11/20 04:36:34;;;;;;;22.10;16.17;;;-1.70;1.00;;;;;;4848321;29;20683;-59
2022/11/20 04:39:04;;;;;;;23.30;16.50;;;-1.70;1.70;;;;;;4832074;29;20237;-60
2022/11/20 04:41:33;;;;;;;20.70;15.23;;;-1.70;1.00;;;;;;4846303;29;20769;-59
2022/11/20 04:44:03;;;;;;;19.93;14.20;;;-1.60;1.00;;;;;;4847897;29;20199;-59
2022/11/20 04:46:39;;;;;;;23.23;15.73;;;-1.60;1.00;;;;;;4848347;29;20202;-60
2022/11/20 04:49:07;;;;;;;21.80;14.73;;;-1.60;1.00;;;;;;4847487;29;20213;-61
2022/11/20 04:51:34;;;;;;;25.27;17.43;;;-1.60;1.00;;;;;;4845819;29;20716;-60
2022/11/20 04:54:01;;;;;;;21.97;15.87;;;-1.50;1.50;;;;;;4846778;29;20226;-60
2022/11/20 04:56:28;;;;;;;22.07;15.27;;;-1.50;1.00;;;;;;4832139;29;20554;-58
2022/11/20 04:58:59;;;;;;;20.20;14.57;;;-1.50;10.50;;;;;;4847014;29;21173;-62
2022/11/20 05:01:26;;;;;;;22.67;14.87;;;-1.60;7.10;;;;;;4845000;29;20215;-61
2022/11/20 05:03:55;;;;;;;25.93;16.10;;;-1.70;20.80;;;;;;4846517;29;20213;-59
2022/11/20 05:06:22;;;;;;;21.97;15.83;;;-1.60;33.40;;;;;;4847560;29;20230;-60
2022/11/20 05:08:49;;;;;;;24.33;15.60;;;-1.70;59.40;;;;;;4847146;29;20766;-60
2022/11/20 05:11:19;;;;;;;22.97;15.77;;;-1.60;78.80;;;;;;4847345;29;20285;-59
2022/11/20 05:13:46;;;;;;;24.13;16.53;;;-1.60;80.70;;;;;;4846352;29;20207;-58
2022/11/20 05:16:16;;;;;;;24.70;16.77;;;-1.60;90.30;;;;;;4847780;29;20206;-60
2022/11/20 05:18:44;;;;;;;20.87;15.60;;;-1.60;93.30;;;;;;4846073;29;20250;-60
2022/11/20 05:21:14;;;;;;;23.17;16.43;;;-1.60;99.70;;;;;;4847800;29;20334;-59
2022/11/20 05:23:42;;;;;;;21.30;15.20;;;-1.70;99.90;;;;;;4847279;29;20270;-60
2022/11/20 05:26:21;;;;;;;21.77;15.80;;;-1.70;99.90;;;;;;4846479;29;20199;-60
2022/11/20 05:28:49;;;;;;;23.33;16.37;;;-1.70;99.90;;;;;;4845771;29;20659;-59
2022/11/20 05:31:23;;;;;;;26.17;16.67;;;-1.70;99.90;;;;;;4847275;29;20311;-61
2022/11/20 05:33:55;;;;;;;25.50;16.50;;;-1.80;99.90;;;;;;4846371;29;20246;-61
2022/11/20 05:36:23;;;;;;;23.60;16.07;;;-1.80;99.90;;;;;;4846307;29;20281;-59
2022/11/20 05:38:50;;;;;;;23.27;16.60;;;-1.80;99.90;;;;;;4848080;29;20629;-61
2022/11/20 05:41:21;;;;;;;23.97;16.73;;;-1.80;99.90;;;;;;4846577;29;20991;-57
2022/11/20 05:43:50;;;;;;;24.67;16.40;;;-1.80;99.90;;;;;;4847434;29;20206;-60
2022/11/20 05:46:20;;;;;;;25.60;17.50;;;-1.80;99.90;;;;;;4847227;29;20401;-59
2022/11/20 05:48:55;;;;;;;25.47;16.67;;;-1.80;99.90;;;;;;4846291;29;20261;-59
2022/11/20 05:51:23;;;;;;;25.83;16.37;;;-1.80;99.90;;;;;;4846980;29;20290;-60
2022/11/20 05:53:50;;;;;;;23.47;16.33;;;-1.90;99.90;;;;;;4847032;29;20202;-60
2022/11/20 05:56:19;;;;;;;24.33;16.13;;;-2.10;99.90;;;;;;4845806;29;20326;-60
2022/11/20 05:58:47;;;;;;;23.17;15.90;;;-2.10;99.90;;;;;;4847065;29;20203;-59
2022/11/20 06:01:21;;;;;;;21.97;15.80;;;-2.20;99.90;;;;;;4846368;29;20218;-59
2022/11/20 06:03:50;;;;;;;23.53;16.77;;;-2.30;99.90;;;;;;4847017;29;20197;-59
2022/11/20 06:06:19;;;;;;;26.80;17.53;;;-2.10;1.00;;;;;;4830877;29;21031;-59
2022/11/20 06:08:47;;;;;;;20.90;15.40;;;-2.20;1.00;;;;;;4846914;29;20665;-60
2022/11/20 06:11:17;;;;;;;21.67;16.07;;;-2.30;1.00;;;;;;4847370;29;20292;-60
2022/11/20 06:13:45;;;;;;;24.50;16.77;;;-2.40;1.00;;;;;;4846438;29;20290;-60
2022/11/20 06:16:14;;;;;;;21.33;15.50;;;-2.60;1.00;;;;;;4845290;29;20305;-60
2022/11/20 06:18:41;;;;;;;22.50;15.77;;;-2.70;1.00;;;;;;4829362;29;20218;-58
2022/11/20 06:21:11;;;;;;;21.83;16.10;;;-2.80;1.00;;;;;;4846155;29;20305;-60
2022/11/20 06:23:38;;;;;;;28.87;16.60;;;-2.90;1.00;;;;;;4846363;29;20285;-61
2022/11/20 06:26:10;;;;;;;21.20;15.30;;;-3.30;1.00;;;;;;4845004;29;20301;-60
2022/11/20 06:28:38;;;;;;;25.17;16.97;;;-3.10;1.00;;;;;;4846270;29;20206;-59
2022/11/20 06:31:06;;;;;;;27.83;17.90;;;-3.10;1.00;;;;;;4845283;29;20277;-63
2022/11/20 06:33:33;;;;;;;33.27;20.73;;;-3.20;1.00;;;;;;4845120;29;20217;-60
2022/11/20 06:36:01;;;;;;;32.27;23.57;;;-3.10;1.00;;;;;;4846436;29;20258;-59
2022/11/20 06:38:36;;;;;;;34.40;22.53;;;-3.20;1.00;;;;;;4845112;29;20289;-61
2022/11/20 06:41:04;;;;;;;32.27;21.13;;;-3.20;99.90;;;;;;4846678;29;20250;-60
2022/11/20 06:43:31;;;;;;;32.87;20.67;;;-3.30;53.80;;;;;;4841285;29;20202;-62
2022/11/20 06:45:59;;;;;;;27.30;19.30;;;-3.30;99.90;;;;;;4842793;29;20202;-61
2022/11/20 06:48:27;;;;;;;31.87;21.23;;;-3.30;99.90;;;;;;4845228;29;20194;-59
2022/11/20 06:50:54;;;;;;;40.20;21.93;;;-3.30;99.90;;;;;;4845656;29;20229;-61
2022/11/20 06:53:22;;;;;;;35.83;23.67;;;-3.40;99.90;;;;;;4845008;29;20206;-62
2022/11/20 06:55:50;;;;;;;36.13;23.30;;;-3.30;99.90;;;;;;4829572;29;20226;-61
2022/11/20 06:58:18;;;;;;;37.80;24.10;;;-3.30;99.90;;;;;;4845778;29;21077;-62
2022/11/20 07:00:44;;;;;;;37.93;23.37;;;-3.40;99.90;;;;;;4845586;29;20233;-61
2022/11/20 07:03:12;;;;;;;38.63;25.43;;;-3.40;99.90;;;;;;4829654;29;20225;-61
2022/11/20 07:05:40;;;;;;;43.73;25.07;;;-3.40;99.90;;;;;;4846223;29;20597;-63
2022/11/20 07:08:07;;;;;;;54.33;30.63;;;-3.40;99.90;;;;;;4845721;29;20223;-60
2022/11/20 07:10:34;;;;;;;57.10;29.93;;;-3.40;99.90;;;;;;4841271;29;20334;-59
2022/11/20 07:13:01;;;;;;;54.93;28.87;;;-3.40;99.90;;;;;;4845217;29;20199;-60
2022/11/20 07:15:29;;;;;;;47.73;27.80;;;-3.40;99.90;;;;;;4845456;29;20206;-61
2022/11/20 07:17:59;;;;;;;63.77;32.00;;;-3.30;1.00;;;;;;4844180;29;20301;-61
2022/11/20 07:20:26;;;;;;;64.27;33.60;;;-3.30;99.90;;;;;;4847175;29;20214;-61
2022/11/20 07:22:57;;;;;;;53.40;30.90;;;-3.20;99.90;;;;;;4844166;29;20215;-60
2022/11/20 07:25:25;;;;;;;45.70;26.80;;;-3.20;99.90;;;;;;4845534;29;20186;-61
2022/11/20 07:27:56;;;;;;;43.43;27.17;;;-3.00;99.90;;;;;;4845158;29;20227;-61
2022/11/20 07:30:23;;;;;;;33.37;21.37;;;-3.00;99.90;;;;;;4845345;29;20289;-61
2022/11/20 07:32:53;;;;;;;35.47;23.00;;;-3.00;19.40;;;;;;4844102;29;20627;-59
2022/11/20 07:35:21;;;;;;;34.93;23.10;;;-2.90;1.00;;;;;;4845219;29;20206;-61
2022/11/20 07:37:48;;;;;;;38.27;25.70;;;-2.80;1.00;;;;;;4844864;29;20226;-61
2022/11/20 07:40:16;;;;;;;37.70;24.33;;;-2.60;1.00;;;;;;4843475;29;20277;-61
2022/11/20 07:42:51;;;;;;;34.73;23.07;;;-2.50;1.00;;;;;;4844390;29;20226;-62
2022/11/20 07:45:23;;;;;;;44.87;26.80;;;-2.30;1.00;;;;;;4844761;29;20503;-62
2022/11/20 07:47:50;;;;;;;40.73;24.27;;;-2.10;1.00;;;;;;4857988;29;20199;-61
2022/11/20 07:50:18;;;;;;;40.53;26.53;;;-2.00;99.90;;;;;;4858720;29;20263;-61
2022/11/20 07:52:46;;;;;;;53.63;33.70;;;-1.70;99.90;;;;;;4844545;29;20255;-61
2022/11/20 07:55:13;;;;;;;57.50;32.80;;;-1.70;99.90;;;;;;4845852;29;20674;-61
2022/11/20 07:57:40;;;;;;;47.17;31.00;;;-1.50;99.90;;;;;;4844883;29;20244;-60
2022/11/20 08:00:09;;;;;;;38.63;27.40;;;-1.40;91.70;;;;;;4844789;29;20766;-61
2022/11/20 08:02:40;;;;;;;38.07;25.07;;;-1.30;15.20;;;;;;4844678;29;20659;-62
2022/11/20 08:05:09;;;;;;;33.60;24.37;;;-1.20;1.00;;;;;;4859359;29;20292;-62
2022/11/20 08:07:41;;;;;;;31.03;23.00;;;-0.90;1.00;;;;;;4858862;29;20215;-62
2022/11/20 08:10:09;;;;;;;28.97;21.97;;;-1.20;1.00;;;;;;4844919;29;20245;-60
2022/11/20 08:15:29;;;;;;;44.30;27.50;;;-0.90;1.00;;;;;;4844263;29;20271;-60
2022/11/20 08:18:03;;;;;;;29.47;20.07;;;-0.70;1.00;;;;;;4843307;29;20769;-61
2022/11/20 08:20:50;;;;;;;33.00;20.53;;;-0.80;1.00;;;;;;4845706;29;20921;-61
2022/11/20 08:23:17;;;;;;;26.73;18.73;;;-0.70;1.00;;;;;;4844324;29;20223;-61
2022/11/20 08:25:49;;;;;;;27.60;19.10;;;-0.60;1.00;;;;;;4843354;29;20294;-61
2022/11/20 08:28:16;;;;;;;36.93;26.87;;;-0.50;1.00;;;;;;4843232;29;20618;-62
2022/11/20 08:30:48;;;;;;;28.77;19.67;;;-0.40;1.00;;;;;;4844115;29;20286;-61
2022/11/20 08:33:17;;;;;;;34.33;20.03;;;-0.50;1.00;;;;;;4844591;29;20198;-61
2022/11/20 08:35:44;;;;;;;22.87;16.67;;;-0.50;1.00;;;;;;4844442;29;20203;-60
2022/11/20 08:38:11;;;;;;;36.80;23.17;;;-0.50;1.00;;;;;;4845298;29;20194;-62
2022/11/20 08:40:38;;;;;;;23.27;17.60;;;-0.60;1.00;;;;;;4844798;29;20321;-61
2022/11/20 08:43:05;;;;;;;35.57;21.43;;;-0.60;1.00;;;;;;4844621;29;20242;-60
2022/11/20 08:45:32;;;;;;;49.53;27.00;;;-0.50;1.00;;;;;;4845180;29;20286;-61
2022/11/20 08:48:02;;;;;;;39.73;22.50;;;-0.50;1.00;;;;;;4843496;29;20735;-60
2022/11/20 08:50:31;;;;;;;53.20;26.30;;;-0.50;1.00;;;;;;4843147;29;20199;-61
2022/11/20 08:53:03;;;;;;;41.57;23.90;;;-0.40;1.00;;;;;;4828724;29;20214;-61
2022/11/20 08:55:30;;;;;;;41.23;23.33;;;-0.40;1.00;;;;;;4847354;29;20199;-60
2022/11/20 08:57:57;;;;;;;36.97;19.63;;;-0.30;1.00;;;;;;4830280;29;20198;-61
2022/11/20 09:00:24;;;;;;;29.23;18.93;;;-0.20;1.00;;;;;;4846894;29;20751;-61
2022/11/20 09:02:52;;;;;;;38.30;21.87;;;0.60;1.00;;;;;;4848944;29;20297;-60
2022/11/20 09:05:19;;;;;;;23.83;17.83;;;5.90;1.00;;;;;;4847556;29;20199;-61
2022/11/20 09:07:46;;;;;;;16.03;12.50;;;10.20;1.00;;;;;;4845831;29;20202;-60
2022/11/20 09:10:12;;;;;;;14.03;11.50;;;11.50;1.00;;;;;;4849286;29;20326;-60
2022/11/20 09:12:51;;;;;;;15.27;12.20;;;11.80;1.00;;;;;;4831492;29;20203;-60
2022/11/20 09:15:18;;;;;;;15.70;12.17;;;11.50;1.00;;;;;;4849765;29;20206;-61
2022/11/20 09:18:15;;;;;;;14.63;11.83;;;12.70;1.00;;;;;;4848869;29;21246;-61
2022/11/20 09:20:42;;;;;;;15.97;13.00;;;14.00;1.00;;;;;;4840600;29;20223;-61
2022/11/20 09:23:09;;;;;;;15.57;12.87;;;15.30;1.00;;;;;;4848039;29;20214;-62
2022/11/20 09:25:36;;;;;;;14.23;11.53;;;14.50;1.00;;;;;;4847698;29;20194;-60
2022/11/20 09:28:03;;;;;;;12.98;11.52;;;16.00;1.00;;;;;;4847357;29;20202;-58
2022/11/20 09:30:30;;;;;;;13.50;11.63;;;17.50;1.00;;;;;;4846701;29;20198;-60
2022/11/20 09:32:57;;;;;;;11.60;10.38;;;17.60;1.00;;;;;;4846023;29;20215;-61
2022/11/20 09:35:24;;;;;;;12.73;11.43;;;17.30;1.00;;;;;;4832813;29;20298;-60
2022/11/20 09:37:51;;;;;;;12.45;11.05;;;16.90;1.00;;;;;;4848093;29;20198;-60
2022/11/20 09:40:27;;;;;;;10.55;9.20;;;16.80;1.00;;;;;;4848120;29;20210;-59
2022/11/20 09:43:14;;;;;;;10.05;8.98;;;14.70;1.00;;;;;;4848821;29;20301;-59
2022/11/20 09:45:50;;;;;;;11.95;10.52;;;15.40;1.00;;;;;;4831262;29;20199;-59
2022/11/20 09:48:33;;;;;;;10.60;9.50;;;14.70;1.00;;;;;;4848610;29;20659;-61
2022/11/20 09:51:22;;;;;;;13.43;12.02;;;15.50;1.00;;;;;;4847240;29;20709;-61
2022/11/20 09:54:34;;;;;;;12.85;11.52;;;15.90;1.00;;;;;;4847504;29;20233;-60
2022/11/20 09:57:05;;;;;;;12.73;10.70;;;16.70;1.00;;;;;;4841843;29;20214;-60
2022/11/20 09:59:46;;;;;;;13.50;10.32;;;18.80;1.00;;;;;;4845715;29;20221;-59
2022/11/20 10:02:51;;;;;;;11.93;10.52;;;16.40;1.00;;;;;;4847444;29;20471;-59
2022/11/20 10:05:31;;;;;;;10.82;9.55;;;16.70;1.00;;;;;;4807982;29;20241;-61
2022/11/20 10:08:24;;;;;;;17.05;13.18;;;16.30;1.00;;;;;;4829135;29;20211;-60
2022/11/20 10:11:13;;;;;;;12.18;10.82;;;17.10;1.00;;;;;;4860470;29;20230;-60
2022/11/20 10:13:53;;;;;;;11.15;9.65;;;18.40;1.00;;;;;;4845036;29;20214;-60
2022/11/20 10:17:03;;;;;;;10.43;9.32;;;19.00;1.00;;;;;;4845306;29;20313;-61
2022/11/20 10:19:52;;;;;;;10.52;9.43;;;19.10;1.00;;;;;;4846743;29;20707;-61
2022/11/20 10:22:46;;;;;;;10.65;9.55;;;19.50;1.00;;;;;;4845584;29;20219;-60
2022/11/20 10:25:19;;;;;;;14.48;12.88;;;18.40;1.00;;;;;;4845401;29;20194;-65
2022/11/20 10:28:11;;;;;;;16.17;14.60;;;15.70;1.00;;;;;;4846079;29;20548;-62
2022/11/20 10:30:42;;;;;;;13.45;11.68;;;16.60;1.00;;;;;;4847328;29;20206;-59
2022/11/20 10:33:20;;;;;;;13.77;10.85;;;15.10;1.00;;;;;;4845834;29;20191;-60
2022/11/20 10:36:18;;;;;;;11.30;10.10;;;16.00;1.00;;;;;;4848168;29;20198;-60
2022/11/20 10:39:03;;;;;;;27.55;23.40;;;16.70;1.00;;;;;;4861294;29;20297;-60
2022/11/20 10:41:38;;;;;;;35.88;31.25;;;15.40;1.00;;;;;;4848423;29;20198;-60
2022/11/20 10:47:05;;;;;;;15.27;12.10;;;16.30;1.00;;;;;;4846057;29;20246;-60
2022/11/20 10:49:34;;;;;;;12.90;11.55;;;15.20;1.00;;;;;;4845129;29;20287;-60
2022/11/20 10:52:28;;;;;;;13.82;11.80;;;14.40;1.00;;;;;;4846374;29;20258;-62
2022/11/20 10:55:04;;;;;;;13.55;12.13;;;15.50;1.00;;;;;;4845400;29;20206;-60
2022/11/20 10:57:40;;;;;;;13.60;11.43;;;15.70;1.00;;;;;;4846601;29;20202;-60
2022/11/20 11:00:10;;;;;;;12.98;11.63;;;16.70;1.00;;;;;;4847712;29;20809;-61
2022/11/20 11:02:47;;;;;;;14.90;12.65;;;15.90;1.00;;;;;;4845431;29;20992;-61
2022/11/20 11:05:22;;;;;;;13.40;11.48;;;16.90;1.00;;;;;;4846930;29;20201;-60
2022/11/20 11:07:53;;;;;;;16.83;15.13;;;14.30;1.00;;;;;;4859558;29;20214;-60
2022/11/20 11:10:23;;;;;;;17.52;14.38;;;13.90;1.00;;;;;;4860920;29;20257;-60
2022/11/20 11:12:49;;;;;;;18.88;16.60;;;15.70;1.00;;;;;;4859529;29;20235;-61
2022/11/20 11:15:27;;;;;;;14.38;12.57;;;16.50;1.00;;;;;;4845485;29;20620;-61
2022/11/20 11:17:54;;;;;;;15.20;12.45;;;13.90;1.00;;;;;;4844948;29;20203;-60
2022/11/20 11:20:24;;;;;;;12.60;11.25;;;15.90;1.00;;;;;;4846104;29;20202;-61
2022/11/20 11:22:54;;;;;;;13.70;11.98;;;17.30;1.00;;;;;;4845127;29;20218;-60
2022/11/20 11:25:33;;;;;;;13.02;11.45;;;17.70;1.00;;;;;;4846169;29;20290;-63
2022/11/20 11:28:19;;;;;;;14.30;11.23;;;17.50;1.00;;;;;;4846789;29;20202;-60
2022/11/20 11:30:49;;;;;;;17.83;13.23;;;15.40;1.00;;;;;;4845211;29;20198;-60
2022/11/20 11:33:27;;;;;;;13.10;11.70;;;15.70;1.00;;;;;;4846401;29;20212;-59
2022/11/20 11:36:03;;;;;;;13.82;12.07;;;16.30;1.00;;;;;;4861349;29;20281;-61
2022/11/20 11:38:43;;;;;;;13.00;11.45;;;13.60;1.00;;;;;;4860702;29;20206;-61
2022/11/20 11:41:27;;;;;;;14.95;11.57;;;15.10;1.00;;;;;;4845928;29;20306;-59
2022/11/20 11:46:56;;;;;;;17.25;12.35;;;13.10;1.00;;;;;;4847043;29;20201;-59
2022/11/20 11:49:23;;;;;;;13.48;12.07;;;12.30;1.00;;;;;;4845559;29;20671;-59
2022/11/20 11:52:17;;;;;;;14.80;12.57;;;12.20;1.00;;;;;;4845268;29;20206;-59
2022/11/20 11:54:59;;;;;;;17.58;13.32;;;11.00;1.00;;;;;;4845553;29;20212;-59
2022/11/20 11:57:54;;;;;;;16.47;12.13;;;12.50;1.00;;;;;;4860833;29;20194;-59
2022/11/20 12:00:22;;;;;;;15.63;12.10;;;11.50;1.00;;;;;;4846681;29;20199;-60
2022/11/20 12:03:09;;;;;;;16.53;12.53;;;10.60;1.00;;;;;;4844089;29;20222;-59
2022/11/20 12:05:44;;;;;;;17.43;13.57;;;9.20;1.00;;;;;;4845089;29;20793;-60
2022/11/20 12:08:23;;;;;;;19.97;15.03;;;8.50;1.00;;;;;;4846608;29;20210;-59
2022/11/20 12:11:29;;;;;;;19.80;15.37;;;8.00;1.00;;;;;;4846279;29;20734;-59
2022/11/20 12:14:14;;;;;;;17.60;14.63;;;7.30;1.00;;;;;;4846636;29;20205;-59
2022/11/20 12:16:41;;;;;;;20.47;14.87;;;7.00;1.00;;;;;;4847308;29;20306;-59
2022/11/20 12:19:12;;;;;;;19.57;15.27;;;6.80;1.00;;;;;;4845921;29;20310;-59
2022/11/20 12:21:51;;;;;;;19.87;15.63;;;7.10;1.00;;;;;;4845823;29;20556;-60
2022/11/20 12:24:55;;;;;;;21.90;16.63;;;7.30;1.00;;;;;;4844375;29;20263;-60
2022/11/20 12:27:37;;;;;;;19.23;14.37;;;7.60;1.00;;;;;;4845105;29;20199;-60
2022/11/20 12:30:16;;;;;;;23.47;15.97;;;8.00;1.00;;;;;;4849756;29;20301;-60
2022/11/20 12:33:01;;;;;;;22.00;15.77;;;8.30;1.00;;;;;;4849541;29;20297;-59
2022/11/20 12:35:54;;;;;;;23.20;16.87;;;7.00;1.00;;;;;;4848505;29;20206;-60
2022/11/20 12:38:23;;;;;;;29.13;21.43;;;6.90;1.00;;;;;;4824661;29;20202;-60
2022/11/20 12:41:01;;;;;;;30.53;20.73;;;6.60;1.00;;;;;;4848896;29;20206;-61
2022/11/20 12:46:39;;;;;;;28.73;19.27;;;6.80;1.00;;;;;;4850236;29;20580;-61
2022/11/20 12:49:09;;;;;;;24.30;18.33;;;6.70;1.00;;;;;;4848884;29;20198;-61
2022/11/20 12:52:14;;;;;;;20.80;16.60;;;6.70;1.00;;;;;;4850092;29;20308;-59
2022/11/20 12:54:47;;;;;;;21.00;15.37;;;6.60;1.00;;;;;;4847893;29;20289;-60
2022/11/20 12:57:14;;;;;;;23.70;17.40;;;5.90;1.00;;;;;;4847843;29;20213;-60
2022/11/20 12:59:53;;;;;;;27.63;22.13;;;5.70;1.00;;;;;;4847465;29;20254;-58
2022/11/20 13:02:57;;;;;;;31.00;25.93;;;5.60;1.00;;;;;;4845661;29;20198;-62
2022/11/20 13:05:50;;;;;;;25.77;18.53;;;5.40;1.00;;;;;;4847208;29;20194;-62
2022/11/20 13:08:28;;;;;;;29.80;24.13;;;5.00;1.00;;;;;;4846197;29;20220;-60
2022/11/20 13:11:02;;;;;;;24.93;17.83;;;5.10;1.00;;;;;;4846126;29;20250;-61
2022/11/20 13:13:53;;;;;;;22.87;16.37;;;5.10;1.00;;;;;;4828411;29;20287;-60
2022/11/20 13:16:23;;;;;;;22.33;16.00;;;5.00;1.00;;;;;;4830143;29;20558;-60
2022/11/20 13:18:50;;;;;;;21.10;15.80;;;5.20;1.00;;;;;;4829597;29;20200;-61
2022/11/20 13:21:35;;;;;;;23.90;17.47;;;5.40;1.00;;;;;;4828232;29;20215;-61